sensor_id;sensor_type;location;lat;lon;timestamp;temperature;humidity
3017;DHT22;1518;52.408;13.060;2022-09-09T00:01:00;13.90;99.90
3017;DHT22;1518;52.408;13.060;2022-09-09T00:03:55;13.80;99.90
3017;DHT22;1518;52.408;13.060;2022-09-09T00:06:48;13.80;99.90
3017;DHT22;1518;52.408;13.060;2022-09-09T00:09:45;13.80;99.90
3017;DHT22;1518;52.408;13.060;2022-09-09T00:12:40;13.80;99.90
3017;DHT22;1518;52.408;13.060;2022-09-09T00:15:35;13.80;99.90
3017;DHT22;1518;52.408;13.060;2022-09-09T00:18:31;13.70;99.90
3017;DHT22;1518;52.408;13.060;2022-09-09T00:21:28;13.70;99.90
3017;DHT22;1518;52.408;13.060;2022-09-09T00:24:24;13.70;99.90
3017;DHT22;1518;52.408;13.060;2022-09-09T00:27:19;13.60;99.90
3017;DHT22;1518;52.408;13.060;2022-09-09T00:30:16;13.60;99.90
3017;DHT22;1518;52.408;13.060;2022-09-09T00:33:11;13.60;99.90
3017;DHT22;1518;52.408;13.060;2022-09-09T00:36:07;13.50;99.90
3017;DHT22;1518;52.408;13.060;2022-09-09T00:38:59;13.50;99.90
3017;DHT22;1518;52.408;13.060;2022-09-09T00:41:56;13.50;99.90
3017;DHT22;1518;52.408;13.060;2022-09-09T00:44:59;13.50;99.90
3017;DHT22;1518;52.408;13.060;2022-09-09T00:47:50;13.50;99.90
3017;DHT22;1518;52.408;13.060;2022-09-09T00:50:46;13.50;99.90
3017;DHT22;1518;52.408;13.060;2022-09-09T00:53:51;13.40;99.90
3017;DHT22;1518;52.408;13.060;2022-09-09T00:56:47;13.40;99.90
3017;DHT22;1518;52.408;13.060;2022-09-09T00:59:47;13.40;99.90
3017;DHT22;1518;52.408;13.060;2022-09-09T01:02:41;13.40;99.90
3017;DHT22;1518;52.408;13.060;2022-09-09T01:05:37;13.40;99.90
3017;DHT22;1518;52.408;13.060;2022-09-09T01:11:59;13.40;99.90
3017;DHT22;1518;52.408;13.060;2022-09-09T01:14:51;13.40;99.90
3017;DHT22;1518;52.408;13.060;2022-09-09T01:17:51;13.30;99.90
3017;DHT22;1518;52.408;13.060;2022-09-09T01:20:47;13.30;99.90
3017;DHT22;1518;52.408;13.060;2022-09-09T01:23:48;13.30;99.90
3017;DHT22;1518;52.408;13.060;2022-09-09T01:26:44;13.30;99.90
3017;DHT22;1518;52.408;13.060;2022-09-09T01:29:33;13.30;99.90
3017;DHT22;1518;52.408;13.060;2022-09-09T01:32:39;13.30;99.90
3017;DHT22;1518;52.408;13.060;2022-09-09T01:35:35;13.30;99.90
3017;DHT22;1518;52.408;13.060;2022-09-09T01:38:25;13.30;99.90
3017;DHT22;1518;52.408;13.060;2022-09-09T01:41:13;13.30;99.90
3017;DHT22;1518;52.408;13.060;2022-09-09T01:44:03;13.30;99.90
3017;DHT22;1518;52.408;13.060;2022-09-09T01:46:51;13.30;99.90
3017;DHT22;1518;52.408;13.060;2022-09-09T01:49:40;13.20;99.90
3017;DHT22;1518;52.408;13.060;2022-09-09T01:52:28;13.20;99.90
3017;DHT22;1518;52.408;13.060;2022-09-09T01:55:17;13.20;99.90
3017;DHT22;1518;52.408;13.060;2022-09-09T01:58:18;13.20;99.90
3017;DHT22;1518;52.408;13.060;2022-09-09T02:01:18;13.20;99.90
3017;DHT22;1518;52.408;13.060;2022-09-09T02:04:23;13.10;99.90
3017;DHT22;1518;52.408;13.060;2022-09-09T02:07:29;13.20;99.90
3017;DHT22;1518;52.408;13.060;2022-09-09T02:10:21;13.10;99.90
3017;DHT22;1518;52.408;13.060;2022-09-09T02:13:13;13.10;99.90
3017;DHT22;1518;52.408;13.060;2022-09-09T02:16:04;13.10;99.90
3017;DHT22;1518;52.408;13.060;2022-09-09T02:19:00;13.10;99.90
3017;DHT22;1518;52.408;13.060;2022-09-09T02:21:48;13.00;99.90
3017;DHT22;1518;52.408;13.060;2022-09-09T02:24:39;13.00;99.90
3017;DHT22;1518;52.408;13.060;2022-09-09T02:27:27;13.00;99.90
3017;DHT22;1518;52.408;13.060;2022-09-09T02:30:16;13.00;99.90
3017;DHT22;1518;52.408;13.060;2022-09-09T02:33:06;12.90;99.90
3017;DHT22;1518;52.408;13.060;2022-09-09T02:35:59;13.00;99.90
3017;DHT22;1518;52.408;13.060;2022-09-09T02:38:50;12.90;99.90
3017;DHT22;1518;52.408;13.060;2022-09-09T02:41:41;12.90;99.90
3017;DHT22;1518;52.408;13.060;2022-09-09T02:44:30;12.90;99.90
3017;DHT22;1518;52.408;13.060;2022-09-09T02:47:25;12.90;99.90
3017;DHT22;1518;52.408;13.060;2022-09-09T02:50:17;12.90;99.90
3017;DHT22;1518;52.408;13.060;2022-09-09T02:53:14;12.80;99.90
3017;DHT22;1518;52.408;13.060;2022-09-09T02:56:05;12.90;99.90
3017;DHT22;1518;52.408;13.060;2022-09-09T02:58:56;12.80;99.90
3017;DHT22;1518;52.408;13.060;2022-09-09T03:01:44;12.80;99.90
3017;DHT22;1518;52.408;13.060;2022-09-09T03:04:32;12.80;99.90
3017;DHT22;1518;52.408;13.060;2022-09-09T03:07:21;12.80;99.90
3017;DHT22;1518;52.408;13.060;2022-09-09T03:10:11;12.80;99.90
3017;DHT22;1518;52.408;13.060;2022-09-09T03:12:59;12.80;99.90
3017;DHT22;1518;52.408;13.060;2022-09-09T03:15:47;12.80;99.90
3017;DHT22;1518;52.408;13.060;2022-09-09T03:18:36;12.80;99.90
3017;DHT22;1518;52.408;13.060;2022-09-09T03:21:24;12.80;99.90
3017;DHT22;1518;52.408;13.060;2022-09-09T03:24:12;12.70;99.90
3017;DHT22;1518;52.408;13.060;2022-09-09T03:27:02;12.70;99.90
3017;DHT22;1518;52.408;13.060;2022-09-09T03:29:50;12.70;99.90
3017;DHT22;1518;52.408;13.060;2022-09-09T03:32:39;12.70;99.90
3017;DHT22;1518;52.408;13.060;2022-09-09T03:35:27;12.70;99.90
3017;DHT22;1518;52.408;13.060;2022-09-09T03:38:16;12.70;99.90
3017;DHT22;1518;52.408;13.060;2022-09-09T03:41:04;12.70;99.90
3017;DHT22;1518;52.408;13.060;2022-09-09T03:43:55;12.70;99.90
3017;DHT22;1518;52.408;13.060;2022-09-09T03:46:43;12.70;99.90
3017;DHT22;1518;52.408;13.060;2022-09-09T03:49:31;12.60;99.90
3017;DHT22;1518;52.408;13.060;2022-09-09T03:52:20;12.60;99.90
3017;DHT22;1518;52.408;13.060;2022-09-09T03:55:09;12.60;99.90
3017;DHT22;1518;52.408;13.060;2022-09-09T03:57:57;12.60;99.90
3017;DHT22;1518;52.408;13.060;2022-09-09T04:00:54;12.60;99.90
3017;DHT22;1518;52.408;13.060;2022-09-09T04:03:43;12.60;99.90
3017;DHT22;1518;52.408;13.060;2022-09-09T04:06:32;12.60;99.90
3017;DHT22;1518;52.408;13.060;2022-09-09T04:09:20;12.50;99.90
3017;DHT22;1518;52.408;13.060;2022-09-09T04:12:08;12.50;99.90
3017;DHT22;1518;52.408;13.060;2022-09-09T04:15:00;12.50;99.90
3017;DHT22;1518;52.408;13.060;2022-09-09T04:17:50;12.50;99.90
3017;DHT22;1518;52.408;13.060;2022-09-09T04:20:38;12.40;99.90
3017;DHT22;1518;52.408;13.060;2022-09-09T04:23:27;12.40;99.90
3017;DHT22;1518;52.408;13.060;2022-09-09T04:26:16;12.40;99.90
3017;DHT22;1518;52.408;13.060;2022-09-09T04:29:04;12.40;99.90
3017;DHT22;1518;52.408;13.060;2022-09-09T04:31:54;12.40;99.90
3017;DHT22;1518;52.408;13.060;2022-09-09T04:34:43;12.40;99.90
3017;DHT22;1518;52.408;13.060;2022-09-09T04:37:31;12.40;99.90
3017;DHT22;1518;52.408;13.060;2022-09-09T04:40:19;12.40;99.90
3017;DHT22;1518;52.408;13.060;2022-09-09T04:43:09;12.50;99.90
3017;DHT22;1518;52.408;13.060;2022-09-09T04:46:00;12.50;99.90
3017;DHT22;1518;52.408;13.060;2022-09-09T04:48:49;12.60;99.90
3017;DHT22;1518;52.408;13.060;2022-09-09T04:51:39;12.60;99.90
3017;DHT22;1518;52.408;13.060;2022-09-09T04:54:27;12.70;99.90
3017;DHT22;1518;52.408;13.060;2022-09-09T04:57:15;12.70;99.90
3017;DHT22;1518;52.408;13.060;2022-09-09T05:00:05;12.70;99.90
3017;DHT22;1518;52.408;13.060;2022-09-09T05:02:54;12.80;99.90
3017;DHT22;1518;52.408;13.060;2022-09-09T05:05:42;12.80;99.90
3017;DHT22;1518;52.408;13.060;2022-09-09T05:08:31;12.80;99.90
3017;DHT22;1518;52.408;13.060;2022-09-09T05:11:21;12.90;99.90
3017;DHT22;1518;52.408;13.060;2022-09-09T05:14:10;12.90;99.90
3017;DHT22;1518;52.408;13.060;2022-09-09T05:16:59;12.90;99.90
3017;DHT22;1518;52.408;13.060;2022-09-09T05:19:47;13.00;99.90
3017;DHT22;1518;52.408;13.060;2022-09-09T05:22:36;13.00;99.90
3017;DHT22;1518;52.408;13.060;2022-09-09T05:25:25;13.00;99.90
3017;DHT22;1518;52.408;13.060;2022-09-09T05:28:14;13.00;99.90
3017;DHT22;1518;52.408;13.060;2022-09-09T05:31:03;13.10;99.90
3017;DHT22;1518;52.408;13.060;2022-09-09T05:33:51;13.10;99.90
3017;DHT22;1518;52.408;13.060;2022-09-09T05:36:40;13.10;99.90
3017;DHT22;1518;52.408;13.060;2022-09-09T05:39:28;13.10;99.90
3017;DHT22;1518;52.408;13.060;2022-09-09T05:42:17;13.20;99.90
3017;DHT22;1518;52.408;13.060;2022-09-09T05:45:06;13.30;99.90
3017;DHT22;1518;52.408;13.060;2022-09-09T05:47:55;13.30;99.90
3017;DHT22;1518;52.408;13.060;2022-09-09T05:50:52;13.40;99.90
3017;DHT22;1518;52.408;13.060;2022-09-09T05:53:41;13.50;99.90
3017;DHT22;1518;52.408;13.060;2022-09-09T05:56:29;13.60;99.90
3017;DHT22;1518;52.408;13.060;2022-09-09T05:59:20;13.60;99.90
3017;DHT22;1518;52.408;13.060;2022-09-09T06:02:10;13.80;99.90
3017;DHT22;1518;52.408;13.060;2022-09-09T06:04:59;13.80;99.90
3017;DHT22;1518;52.408;13.060;2022-09-09T06:07:47;13.90;99.90
3017;DHT22;1518;52.408;13.060;2022-09-09T06:10:35;14.00;99.90
3017;DHT22;1518;52.408;13.060;2022-09-09T06:13:23;14.00;99.90
3017;DHT22;1518;52.408;13.060;2022-09-09T06:16:15;14.00;99.90
3017;DHT22;1518;52.408;13.060;2022-09-09T06:19:03;14.00;99.90
3017;DHT22;1518;52.408;13.060;2022-09-09T06:21:51;14.10;99.90
3017;DHT22;1518;52.408;13.060;2022-09-09T06:24:39;14.00;99.90
3017;DHT22;1518;52.408;13.060;2022-09-09T06:27:27;14.00;99.90
3017;DHT22;1518;52.408;13.060;2022-09-09T06:30:16;14.00;99.90
3017;DHT22;1518;52.408;13.060;2022-09-09T06:33:06;14.10;99.90
3017;DHT22;1518;52.408;13.060;2022-09-09T06:35:54;14.10;99.90
3017;DHT22;1518;52.408;13.060;2022-09-09T06:38:44;14.30;99.90
3017;DHT22;1518;52.408;13.060;2022-09-09T06:41:33;14.40;99.90
3017;DHT22;1518;52.408;13.060;2022-09-09T06:44:21;14.60;99.90
3017;DHT22;1518;52.408;13.060;2022-09-09T06:47:09;14.70;99.90
3017;DHT22;1518;52.408;13.060;2022-09-09T06:49:59;14.80;99.90
3017;DHT22;1518;52.408;13.060;2022-09-09T06:52:47;14.80;99.90
3017;DHT22;1518;52.408;13.060;2022-09-09T06:55:35;14.80;99.90
3017;DHT22;1518;52.408;13.060;2022-09-09T06:58:23;14.90;99.90
3017;DHT22;1518;52.408;13.060;2022-09-09T07:01:13;14.90;99.90
3017;DHT22;1518;52.408;13.060;2022-09-09T07:04:02;15.00;99.90
3017;DHT22;1518;52.408;13.060;2022-09-09T07:06:52;15.10;99.90
3017;DHT22;1518;52.408;13.060;2022-09-09T07:09:40;15.20;99.90
3017;DHT22;1518;52.408;13.060;2022-09-09T07:12:28;15.30;99.90
3017;DHT22;1518;52.408;13.060;2022-09-09T07:15:17;15.30;99.90
3017;DHT22;1518;52.408;13.060;2022-09-09T07:18:05;15.50;99.90
3017;DHT22;1518;52.408;13.060;2022-09-09T07:20:53;15.60;99.90
3017;DHT22;1518;52.408;13.060;2022-09-09T07:23:44;15.60;99.90
3017;DHT22;1518;52.408;13.060;2022-09-09T07:26:33;15.70;99.90
3017;DHT22;1518;52.408;13.060;2022-09-09T07:29:22;15.90;99.90
3017;DHT22;1518;52.408;13.060;2022-09-09T07:32:10;16.10;99.90
3017;DHT22;1518;52.408;13.060;2022-09-09T07:35:06;16.10;99.90
3017;DHT22;1518;52.408;13.060;2022-09-09T07:38:06;16.20;99.90
3017;DHT22;1518;52.408;13.060;2022-09-09T07:41:04;16.20;99.90
3017;DHT22;1518;52.408;13.060;2022-09-09T07:43:55;16.30;99.90
3017;DHT22;1518;52.408;13.060;2022-09-09T07:46:46;16.40;99.90
3017;DHT22;1518;52.408;13.060;2022-09-09T07:49:35;16.60;99.90
3017;DHT22;1518;52.408;13.060;2022-09-09T07:52:27;16.90;99.90
3017;DHT22;1518;52.408;13.060;2022-09-09T07:55:17;17.20;99.90
3017;DHT22;1518;52.408;13.060;2022-09-09T07:58:13;17.40;99.90
3017;DHT22;1518;52.408;13.060;2022-09-09T08:01:09;17.60;99.90
3017;DHT22;1518;52.408;13.060;2022-09-09T08:04:00;17.70;99.90
3017;DHT22;1518;52.408;13.060;2022-09-09T08:06:51;17.80;99.90
3017;DHT22;1518;52.408;13.060;2022-09-09T08:09:40;17.90;99.90
3017;DHT22;1518;52.408;13.060;2022-09-09T08:12:32;18.00;99.90
3017;DHT22;1518;52.408;13.060;2022-09-09T08:15:25;18.00;99.90
3017;DHT22;1518;52.408;13.060;2022-09-09T08:18:19;18.10;99.90
3017;DHT22;1518;52.408;13.060;2022-09-09T08:21:15;18.20;99.90
3017;DHT22;1518;52.408;13.060;2022-09-09T08:24:08;18.20;99.90
3017;DHT22;1518;52.408;13.060;2022-09-09T08:26:58;18.30;99.90
3017;DHT22;1518;52.408;13.060;2022-09-09T08:29:47;18.40;99.90
3017;DHT22;1518;52.408;13.060;2022-09-09T08:32:37;18.50;99.90
3017;DHT22;1518;52.408;13.060;2022-09-09T08:35:34;18.60;99.90
3017;DHT22;1518;52.408;13.060;2022-09-09T08:38:24;18.60;99.90
3017;DHT22;1518;52.408;13.060;2022-09-09T08:41:29;18.60;99.90
3017;DHT22;1518;52.408;13.060;2022-09-09T08:44:30;18.70;99.90
3017;DHT22;1518;52.408;13.060;2022-09-09T08:47:33;18.70;99.90
3017;DHT22;1518;52.408;13.060;2022-09-09T08:50:32;18.80;99.90
3017;DHT22;1518;52.408;13.060;2022-09-09T08:53:24;19.10;99.90
3017;DHT22;1518;52.408;13.060;2022-09-09T08:56:21;19.20;99.90
3017;DHT22;1518;52.408;13.060;2022-09-09T08:59:16;19.30;99.90
3017;DHT22;1518;52.408;13.060;2022-09-09T09:02:15;19.40;99.90
3017;DHT22;1518;52.408;13.060;2022-09-09T09:05:19;19.60;99.90
3017;DHT22;1518;52.408;13.060;2022-09-09T09:08:20;19.80;99.90
3017;DHT22;1518;52.408;13.060;2022-09-09T09:11:13;20.10;99.90
3017;DHT22;1518;52.408;13.060;2022-09-09T09:14:07;20.50;99.90
3017;DHT22;1518;52.408;13.060;2022-09-09T09:16:59;20.90;99.90
3017;DHT22;1518;52.408;13.060;2022-09-09T09:19:53;21.20;99.90
3017;DHT22;1518;52.408;13.060;2022-09-09T09:22:48;21.40;99.90
3017;DHT22;1518;52.408;13.060;2022-09-09T09:25:42;21.50;99.90
3017;DHT22;1518;52.408;13.060;2022-09-09T09:28:35;21.50;99.90
3017;DHT22;1518;52.408;13.060;2022-09-09T09:31:25;21.50;99.90
3017;DHT22;1518;52.408;13.060;2022-09-09T09:34:17;21.70;99.90
3017;DHT22;1518;52.408;13.060;2022-09-09T09:37:15;21.80;99.90
3017;DHT22;1518;52.408;13.060;2022-09-09T09:40:17;21.80;99.90
3017;DHT22;1518;52.408;13.060;2022-09-09T09:43:20;21.60;99.90
3017;DHT22;1518;52.408;13.060;2022-09-09T09:46:20;21.70;99.90
3017;DHT22;1518;52.408;13.060;2022-09-09T09:49:18;22.10;99.90
3017;DHT22;1518;52.408;13.060;2022-09-09T09:52:17;22.20;99.90
3017;DHT22;1518;52.408;13.060;2022-09-09T09:55:13;22.30;99.90
3017;DHT22;1518;52.408;13.060;2022-09-09T09:58:04;22.40;99.90
3017;DHT22;1518;52.408;13.060;2022-09-09T10:00:56;22.30;99.90
3017;DHT22;1518;52.408;13.060;2022-09-09T10:03:53;22.20;99.90
3017;DHT22;1518;52.408;13.060;2022-09-09T10:06:46;22.10;99.90
3017;DHT22;1518;52.408;13.060;2022-09-09T10:09:39;21.90;99.90
3017;DHT22;1518;52.408;13.060;2022-09-09T10:12:40;21.60;99.90
3017;DHT22;1518;52.408;13.060;2022-09-09T10:15:41;21.30;99.90
3017;DHT22;1518;52.408;13.060;2022-09-09T10:18:54;21.10;99.90
3017;DHT22;1518;52.408;13.060;2022-09-09T10:22:02;20.90;99.90
3017;DHT22;1518;52.408;13.060;2022-09-09T10:25:14;20.70;99.90
3017;DHT22;1518;52.408;13.060;2022-09-09T10:28:34;20.60;99.90
3017;DHT22;1518;52.408;13.060;2022-09-09T10:31:36;20.60;99.90
3017;DHT22;1518;52.408;13.060;2022-09-09T10:34:42;20.40;99.90
3017;DHT22;1518;52.408;13.060;2022-09-09T10:38:04;20.50;99.90
3017;DHT22;1518;52.408;13.060;2022-09-09T10:41:09;20.50;99.90
3017;DHT22;1518;52.408;13.060;2022-09-09T10:44:13;20.50;99.90
3017;DHT22;1518;52.408;13.060;2022-09-09T10:47:24;20.50;99.90
3017;DHT22;1518;52.408;13.060;2022-09-09T10:50:40;20.50;99.90
3017;DHT22;1518;52.408;13.060;2022-09-09T10:54:04;20.60;99.90
3017;DHT22;1518;52.408;13.060;2022-09-09T10:57:10;20.60;99.90
3017;DHT22;1518;52.408;13.060;2022-09-09T11:00:04;20.60;99.90
3017;DHT22;1518;52.408;13.060;2022-09-09T11:03:00;20.60;99.90
3017;DHT22;1518;52.408;13.060;2022-09-09T11:05:59;20.80;99.90
3017;DHT22;1518;52.408;13.060;2022-09-09T11:08:52;20.90;99.90
3017;DHT22;1518;52.408;13.060;2022-09-09T11:11:49;21.20;99.90
3017;DHT22;1518;52.408;13.060;2022-09-09T11:14:42;21.40;99.90
3017;DHT22;1518;52.408;13.060;2022-09-09T11:17:36;21.50;99.90
3017;DHT22;1518;52.408;13.060;2022-09-09T11:20:28;21.50;99.90
3017;DHT22;1518;52.408;13.060;2022-09-09T11:23:24;21.70;99.90
3017;DHT22;1518;52.408;13.060;2022-09-09T11:26:23;21.90;99.90
3017;DHT22;1518;52.408;13.060;2022-09-09T11:29:45;22.10;99.90
3017;DHT22;1518;52.408;13.060;2022-09-09T11:33:07;22.30;99.90
3017;DHT22;1518;52.408;13.060;2022-09-09T11:36:27;22.50;99.90
3017;DHT22;1518;52.408;13.060;2022-09-09T11:39:44;22.50;99.90
3017;DHT22;1518;52.408;13.060;2022-09-09T11:42:42;22.60;99.90
3017;DHT22;1518;52.408;13.060;2022-09-09T11:45:35;22.90;99.90
3017;DHT22;1518;52.408;13.060;2022-09-09T11:48:31;23.40;99.90
3017;DHT22;1518;52.408;13.060;2022-09-09T11:51:29;24.00;99.90
3017;DHT22;1518;52.408;13.060;2022-09-09T11:54:33;24.20;99.90
3017;DHT22;1518;52.408;13.060;2022-09-09T11:57:30;24.00;99.90
3017;DHT22;1518;52.408;13.060;2022-09-09T12:00:39;23.80;99.90
3017;DHT22;1518;52.408;13.060;2022-09-09T12:03:47;23.20;99.90
3017;DHT22;1518;52.408;13.060;2022-09-09T12:07:04;23.20;99.90
3017;DHT22;1518;52.408;13.060;2022-09-09T12:10:28;23.00;99.90
3017;DHT22;1518;52.408;13.060;2022-09-09T12:13:19;22.90;99.90
3017;DHT22;1518;52.408;13.060;2022-09-09T12:16:30;22.90;99.90
3017;DHT22;1518;52.408;13.060;2022-09-09T12:19:21;22.80;99.90
3017;DHT22;1518;52.408;13.060;2022-09-09T12:22:20;22.90;99.90
3017;DHT22;1518;52.408;13.060;2022-09-09T12:25:20;22.80;99.90
3017;DHT22;1518;52.408;13.060;2022-09-09T12:28:15;22.80;99.90
3017;DHT22;1518;52.408;13.060;2022-09-09T12:31:08;22.70;99.90
3017;DHT22;1518;52.408;13.060;2022-09-09T12:34:09;22.70;99.90
3017;DHT22;1518;52.408;13.060;2022-09-09T12:37:00;22.70;99.90
3017;DHT22;1518;52.408;13.060;2022-09-09T12:39:53;22.80;99.90
3017;DHT22;1518;52.408;13.060;2022-09-09T12:42:43;22.70;99.90
3017;DHT22;1518;52.408;13.060;2022-09-09T12:45:32;22.60;99.90
3017;DHT22;1518;52.408;13.060;2022-09-09T12:48:29;22.60;99.90
3017;DHT22;1518;52.408;13.060;2022-09-09T12:51:23;22.70;99.90
3017;DHT22;1518;52.408;13.060;2022-09-09T12:54:13;22.90;99.90
3017;DHT22;1518;52.408;13.060;2022-09-09T12:57:02;23.00;99.90
3017;DHT22;1518;52.408;13.060;2022-09-09T12:59:51;23.00;99.90
3017;DHT22;1518;52.408;13.060;2022-09-09T13:02:48;23.00;99.90
3017;DHT22;1518;52.408;13.060;2022-09-09T13:05:42;22.90;99.90
3017;DHT22;1518;52.408;13.060;2022-09-09T13:08:30;22.80;99.90
3017;DHT22;1518;52.408;13.060;2022-09-09T13:11:22;22.60;99.90
3017;DHT22;1518;52.408;13.060;2022-09-09T13:14:16;22.50;99.90
3017;DHT22;1518;52.408;13.060;2022-09-09T13:17:17;22.30;99.90
3017;DHT22;1518;52.408;13.060;2022-09-09T13:20:05;22.20;99.90
3017;DHT22;1518;52.408;13.060;2022-09-09T13:22:56;22.00;99.90
3017;DHT22;1518;52.408;13.060;2022-09-09T13:25:53;21.90;99.90
3017;DHT22;1518;52.408;13.060;2022-09-09T13:28:42;21.90;99.90
3017;DHT22;1518;52.408;13.060;2022-09-09T13:31:36;22.20;99.90
3017;DHT22;1518;52.408;13.060;2022-09-09T13:34:30;23.40;99.90
3017;DHT22;1518;52.408;13.060;2022-09-09T13:37:23;26.70;99.90
3017;DHT22;1518;52.408;13.060;2022-09-09T13:40:18;30.20;99.90
3017;DHT22;1518;52.408;13.060;2022-09-09T13:43:16;30.70;99.90
3017;DHT22;1518;52.408;13.060;2022-09-09T13:46:24;29.70;99.90
3017;DHT22;1518;52.408;13.060;2022-09-09T13:49:21;29.30;99.90
3017;DHT22;1518;52.408;13.060;2022-09-09T13:52:11;29.80;99.90
3017;DHT22;1518;52.408;13.060;2022-09-09T13:54:59;29.60;98.80
3017;DHT22;1518;52.408;13.060;2022-09-09T13:57:53;28.70;98.90
3017;DHT22;1518;52.408;13.060;2022-09-09T14:00:41;28.10;98.50
3017;DHT22;1518;52.408;13.060;2022-09-09T14:03:30;27.60;98.00
3017;DHT22;1518;52.408;13.060;2022-09-09T14:06:19;27.10;98.10
3017;DHT22;1518;52.408;13.060;2022-09-09T14:09:11;26.80;98.60
3017;DHT22;1518;52.408;13.060;2022-09-09T14:12:00;26.70;99.50
3017;DHT22;1518;52.408;13.060;2022-09-09T14:14:50;26.70;99.50
3017;DHT22;1518;52.408;13.060;2022-09-09T14:17:38;26.80;98.60
3017;DHT22;1518;52.408;13.060;2022-09-09T14:20:26;26.70;98.30
3017;DHT22;1518;52.408;13.060;2022-09-09T14:23:14;27.50;98.30
3017;DHT22;1518;52.408;13.060;2022-09-09T14:26:02;29.00;95.70
3017;DHT22;1518;52.408;13.060;2022-09-09T14:28:50;30.80;94.00
3017;DHT22;1518;52.408;13.060;2022-09-09T14:31:43;32.50;90.80
3017;DHT22;1518;52.408;13.060;2022-09-09T14:34:31;33.20;86.80
3017;DHT22;1518;52.408;13.060;2022-09-09T14:37:19;32.50;88.20
3017;DHT22;1518;52.408;13.060;2022-09-09T14:40:08;30.60;87.10
3017;DHT22;1518;52.408;13.060;2022-09-09T14:42:58;28.80;90.80
3017;DHT22;1518;52.408;13.060;2022-09-09T14:45:46;27.80;92.70
3017;DHT22;1518;52.408;13.060;2022-09-09T14:48:36;27.20;94.40
3017;DHT22;1518;52.408;13.060;2022-09-09T14:51:27;26.60;94.70
3017;DHT22;1518;52.408;13.060;2022-09-09T14:54:15;26.00;95.90
3017;DHT22;1518;52.408;13.060;2022-09-09T14:57:03;25.80;97.30
3017;DHT22;1518;52.408;13.060;2022-09-09T14:59:51;25.70;97.50
3017;DHT22;1518;52.408;13.060;2022-09-09T15:02:40;25.70;98.60
3017;DHT22;1518;52.408;13.060;2022-09-09T15:05:29;25.90;98.80
3017;DHT22;1518;52.408;13.060;2022-09-09T15:08:18;26.30;97.50
3017;DHT22;1518;52.408;13.060;2022-09-09T15:11:07;26.90;97.50
3017;DHT22;1518;52.408;13.060;2022-09-09T15:13:57;27.40;96.40
3017;DHT22;1518;52.408;13.060;2022-09-09T15:16:46;27.60;95.50
3017;DHT22;1518;52.408;13.060;2022-09-09T15:19:34;27.30;95.70
3017;DHT22;1518;52.408;13.060;2022-09-09T15:22:25;26.90;96.10
3017;DHT22;1518;52.408;13.060;2022-09-09T15:25:13;26.40;97.90
3017;DHT22;1518;52.408;13.060;2022-09-09T15:28:02;25.90;98.90
3017;DHT22;1518;52.408;13.060;2022-09-09T15:30:51;25.50;99.30
3017;DHT22;1518;52.408;13.060;2022-09-09T15:33:41;25.30;99.90
3017;DHT22;1518;52.408;13.060;2022-09-09T15:36:31;25.00;99.90
3017;DHT22;1518;52.408;13.060;2022-09-09T15:39:21;24.70;99.90
3017;DHT22;1518;52.408;13.060;2022-09-09T15:42:09;24.30;99.90
3017;DHT22;1518;52.408;13.060;2022-09-09T15:44:57;24.20;99.90
3017;DHT22;1518;52.408;13.060;2022-09-09T15:47:47;24.10;99.90
3017;DHT22;1518;52.408;13.060;2022-09-09T15:50:36;24.00;99.90
3017;DHT22;1518;52.408;13.060;2022-09-09T15:53:24;23.70;99.90
3017;DHT22;1518;52.408;13.060;2022-09-09T15:56:14;23.50;99.90
3017;DHT22;1518;52.408;13.060;2022-09-09T15:59:03;23.20;99.90
3017;DHT22;1518;52.408;13.060;2022-09-09T16:01:51;22.90;99.90
3017;DHT22;1518;52.408;13.060;2022-09-09T16:04:40;22.60;99.90
3017;DHT22;1518;52.408;13.060;2022-09-09T16:07:28;22.40;99.90
3017;DHT22;1518;52.408;13.060;2022-09-09T16:10:16;22.20;99.90
3017;DHT22;1518;52.408;13.060;2022-09-09T16:13:06;22.10;99.90
3017;DHT22;1518;52.408;13.060;2022-09-09T16:15:55;22.00;99.90
3017;DHT22;1518;52.408;13.060;2022-09-09T16:18:45;21.80;99.90
3017;DHT22;1518;52.408;13.060;2022-09-09T16:21:35;21.70;99.90
3017;DHT22;1518;52.408;13.060;2022-09-09T16:24:24;21.70;99.90
3017;DHT22;1518;52.408;13.060;2022-09-09T16:27:13;21.60;99.90
3017;DHT22;1518;52.408;13.060;2022-09-09T16:30:04;21.50;99.90
3017;DHT22;1518;52.408;13.060;2022-09-09T16:32:52;21.40;99.90
3017;DHT22;1518;52.408;13.060;2022-09-09T16:35:40;21.30;99.90
3017;DHT22;1518;52.408;13.060;2022-09-09T16:38:28;21.20;99.90
3017;DHT22;1518;52.408;13.060;2022-09-09T16:41:17;21.10;99.90
3017;DHT22;1518;52.408;13.060;2022-09-09T16:44:07;21.00;99.90
3017;DHT22;1518;52.408;13.060;2022-09-09T16:46:57;20.90;99.90
3017;DHT22;1518;52.408;13.060;2022-09-09T16:49:47;20.80;99.90
3017;DHT22;1518;52.408;13.060;2022-09-09T16:52:35;20.70;99.90
3017;DHT22;1518;52.408;13.060;2022-09-09T16:55:23;20.60;99.90
3017;DHT22;1518;52.408;13.060;2022-09-09T16:58:12;20.50;99.90
3017;DHT22;1518;52.408;13.060;2022-09-09T17:01:02;20.40;99.90
3017;DHT22;1518;52.408;13.060;2022-09-09T17:03:54;20.40;99.90
3017;DHT22;1518;52.408;13.060;2022-09-09T17:06:47;20.30;99.90
3017;DHT22;1518;52.408;13.060;2022-09-09T17:09:37;20.20;99.90
3017;DHT22;1518;52.408;13.060;2022-09-09T17:12:25;20.10;99.90
3017;DHT22;1518;52.408;13.060;2022-09-09T17:15:13;20.00;99.90
3017;DHT22;1518;52.408;13.060;2022-09-09T17:18:01;20.00;99.90
3017;DHT22;1518;52.408;13.060;2022-09-09T17:20:51;19.90;99.90
3017;DHT22;1518;52.408;13.060;2022-09-09T17:23:39;19.80;99.90
3017;DHT22;1518;52.408;13.060;2022-09-09T17:26:29;19.70;99.90
3017;DHT22;1518;52.408;13.060;2022-09-09T17:29:17;19.60;99.90
3017;DHT22;1518;52.408;13.060;2022-09-09T17:32:06;19.40;99.90
3017;DHT22;1518;52.408;13.060;2022-09-09T17:34:54;19.40;99.90
3017;DHT22;1518;52.408;13.060;2022-09-09T17:37:44;19.30;99.90
3017;DHT22;1518;52.408;13.060;2022-09-09T17:40:32;19.20;99.90
3017;DHT22;1518;52.408;13.060;2022-09-09T17:43:20;19.10;99.90
3017;DHT22;1518;52.408;13.060;2022-09-09T17:46:09;19.00;99.90
3017;DHT22;1518;52.408;13.060;2022-09-09T17:49:00;18.80;99.90
3017;DHT22;1518;52.408;13.060;2022-09-09T17:51:49;18.70;99.90
3017;DHT22;1518;52.408;13.060;2022-09-09T17:54:38;18.70;99.90
3017;DHT22;1518;52.408;13.060;2022-09-09T17:57:27;18.60;99.90
3017;DHT22;1518;52.408;13.060;2022-09-09T18:00:15;18.50;99.90
3017;DHT22;1518;52.408;13.060;2022-09-09T18:03:03;18.40;99.90
3017;DHT22;1518;52.408;13.060;2022-09-09T18:05:52;18.30;99.90
3017;DHT22;1518;52.408;13.060;2022-09-09T18:08:40;18.20;99.90
3017;DHT22;1518;52.408;13.060;2022-09-09T18:11:31;18.10;99.90
3017;DHT22;1518;52.408;13.060;2022-09-09T18:14:22;18.10;99.90
3017;DHT22;1518;52.408;13.060;2022-09-09T18:17:11;18.00;99.90
3017;DHT22;1518;52.408;13.060;2022-09-09T18:19:59;17.80;99.90
3017;DHT22;1518;52.408;13.060;2022-09-09T18:22:47;17.80;99.90
3017;DHT22;1518;52.408;13.060;2022-09-09T18:25:37;17.80;99.90
3017;DHT22;1518;52.408;13.060;2022-09-09T18:28:26;17.70;99.90
3017;DHT22;1518;52.408;13.060;2022-09-09T18:31:16;17.70;99.90